LL36 weather

Exposition Gardens Heliport
Peoria, Illinois, United States

Public forecast

Using degrees Fahrenheit for public forecast. Weather courtesy of forecast.io.

METAR (pilot weather report)

Closest report is General Wayne A. Downing Peoria International Airport, 6.9 nm (12.7 km) SSW. Retrieved 2019/06/25 05:54 UTC (1 hour ago):

KPIA 250554Z 23005KT 10SM CLR 18/14 A2982 RMK AO2 SLP095 T01780144 10244 20172 402720172 53007

TAF (pilot weather forecast)

Closest forecast is General Wayne A. Downing Peoria International Airport, 6.9 nm (12.7 km) SSW. Retrieved 2019/06/25 06:22 UTC (38 minutes ago):

TAF KPIA 250520Z 2506/2606 24007KT P6SM SKC FM251500 22012KT P6SM SKC FM251800 22012G20KT P6SM SKC FM260000 22008KT P6SM BKN070 WS020/24045KT PROB30 2600/2603 4SM -TSRA BKN050CB FM260300 21008KT P6SM BKN100